Time;durP1;ratioP1;P1;durP2;ratioP2;P2;SDS_P1;SDS_P2;PMS_P1;PMS_P2;Temp;Humidity;BMP_temperature;BMP_pressure;BME280_temperature;BME280_humidity;BME280_pressure;Samples;Min_cycle;Max_cycle;Signal;HPM_P1;HPM_P2
2023/12/06 00:01:13;;;;;;;;;;;;;;;;;;4147990;28;20316;-64
2023/12/06 00:03:15;;;;;;;;;;;;;;;;;;4148304;28;19925;-64
2023/12/06 00:05:16;;;;;;;;;;;;;;;;;;4148256;28;19960;-64
2023/12/06 00:07:18;;;;;;;;;;;;;;;;;;4148312;28;19925;-64
2023/12/06 00:09:20;;;;;;;;;;;;;;;;;;4149930;28;19929;-64
2023/12/06 00:11:21;;;;;;;;;;;;;;;;;;4148379;28;19925;-65
2023/12/06 00:13:22;;;;;;;;;;;;;;;;;;4148479;28;19926;-64
2023/12/06 00:15:24;;;;;;;;;;;;;;;;;;4131024;28;20040;-65
2023/12/06 00:17:25;;;;;;;;;;;;;;;;;;4148491;28;20365;-64
2023/12/06 00:19:27;;;;;;;;;;;;;;;;;;4148373;28;19952;-64
2023/12/06 00:21:29;;;;;;;;;;;;;;;;;;4148363;28;20357;-64
2023/12/06 00:23:30;;;;;;;;;;;;;;;;;;4150697;28;20337;-63
2023/12/06 00:25:32;;;;;;;;;;;;;;;;;;4151726;28;20341;-65
2023/12/06 00:27:33;;;;;;;;;;;;;;;;;;4151811;28;19976;-64
2023/12/06 00:29:35;;;;;;;;;;;;;;;;;;4151817;28;19921;-64
2023/12/06 00:31:36;;;;;;;;;;;;;;;;;;4151761;28;20412;-65
2023/12/06 00:33:37;;;;;;;;;;;;;;;;;;4151774;28;19922;-66
2023/12/06 00:35:39;;;;;;;;;;;;;;;;;;4151346;28;19925;-66
2023/12/06 00:37:41;;;;;;;;;;;;;;;;;;4150947;28;19933;-66
2023/12/06 00:39:42;;;;;;;;;;;;;;;;;;4150030;28;20566;-66
2023/12/06 00:41:44;;;;;;;;;;;;;;;;;;4149899;28;20378;-66
2023/12/06 00:43:45;;;;;;;;;;;;;;;;;;4149575;28;19975;-66
2023/12/06 00:45:47;;;;;;;;;;;;;;;;;;4149887;28;19961;-66
2023/12/06 00:47:48;;;;;;;;;;;;;;;;;;4149673;28;19960;-66
2023/12/06 00:49:50;;;;;;;;;;;;;;;;;;4149724;28;20206;-66
2023/12/06 00:51:52;;;;;;;;;;;;;;;;;;4150077;28;20056;-66
2023/12/06 00:53:53;;;;;;;;;;;;;;;;;;4155527;28;19935;-66
2023/12/06 00:55:55;;;;;;;;;;;;;;;;;;4133672;28;20436;-66
2023/12/06 00:57:56;;;;;;;;;;;;;;;;;;4133597;28;19958;-66
2023/12/06 00:59:58;;;;;;;;;;;;;;;;;;4151036;28;20440;-66
2023/12/06 01:01:59;;;;;;;;;;;;;;;;;;4151023;28;19921;-67
2023/12/06 01:04:01;;;;;;;;;;;;;;;;;;4150794;28;19921;-66
2023/12/06 01:06:04;;;;;;;;;;;;;;;;;;4150964;28;19976;-66
2023/12/06 01:08:05;;;;;;;;;;;;;;;;;;4152599;28;19925;-66
2023/12/06 01:10:07;;;;;;;;;;;;;;;;;;4149546;28;19926;-66
2023/12/06 01:12:08;;;;;;;;;;;;;;;;;;4167233;28;19921;-66
2023/12/06 01:14:10;;;;;;;;;;;;;;;;;;4167195;28;19975;-67
2023/12/06 01:16:11;;;;;;;;;;;;;;;;;;4167104;28;20370;-66
2023/12/06 01:18:13;;;;;;;;;;;;;;;;;;4167391;28;19928;-66
2023/12/06 01:20:15;;;;;;;;;;;;;;;;;;4149497;28;19921;-66
2023/12/06 01:22:16;;;;;;;;;;;;;;;;;;4166973;28;19921;-66
2023/12/06 01:24:18;;;;;;;;;;;;;;;;;;4166936;28;19971;-66
2023/12/06 01:26:19;;;;;;;;;;;;;;;;;;4167133;28;19929;-66
2023/12/06 01:28:21;;;;;;;;;;;;;;;;;;4167147;28;20438;-66
2023/12/06 01:30:22;;;;;;;;;;;;;;;;;;4166737;28;20036;-66
2023/12/06 01:32:24;;;;;;;;;;;;;;;;;;4158314;28;19921;-66
2023/12/06 01:34:25;;;;;;;;;;;;;;;;;;4149832;28;19930;-66
2023/12/06 01:36:27;;;;;;;;;;;;;;;;;;4150644;28;19921;-65
2023/12/06 01:38:28;;;;;;;;;;;;;;;;;;4150457;28;19987;-66
2023/12/06 01:40:30;;;;;;;;;;;;;;;;;;4150319;28;19928;-66
2023/12/06 01:42:31;;;;;;;;;;;;;;;;;;4150366;28;19944;-66
2023/12/06 01:44:33;;;;;;;;;;;;;;;;;;4150313;28;19929;-65
2023/12/06 01:46:34;;;;;;;;;;;;;;;;;;4150338;28;19932;-64
2023/12/06 01:48:36;;;;;;;;;;;;;;;;;;4150301;28;20321;-64
2023/12/06 01:50:38;;;;;;;;;;;;;;;;;;4132603;28;20020;-64
2023/12/06 01:52:39;;;;;;;;;;;;;;;;;;4150428;28;19921;-65
2023/12/06 01:54:40;;;;;;;;;;;;;;;;;;4164763;28;20293;-64
2023/12/06 01:56:44;;;;;;;;;;;;;;;;;;4166772;28;20327;-65
2023/12/06 01:58:46;;;;;;;;;;;;;;;;;;4165423;28;19931;-66
2023/12/06 02:00:47;;;;;;;;;;;;;;;;;;4164713;28;20332;-64
2023/12/06 02:02:49;;;;;;;;;;;;;;;;;;4149384;28;19933;-66
2023/12/06 02:04:51;;;;;;;;;;;;;;;;;;4148785;28;19944;-67
2023/12/06 02:06:52;;;;;;;;;;;;;;;;;;4148844;28;20440;-66
2023/12/06 02:08:54;;;;;;;;;;;;;;;;;;4158267;28;20340;-66
2023/12/06 02:10:55;;;;;;;;;;;;;;;;;;4165327;28;19921;-66
2023/12/06 02:12:57;;;;;;;;;;;;;;;;;;4150049;28;19927;-67
2023/12/06 02:14:59;;;;;;;;;;;;;;;;;;4150045;28;19956;-66
2023/12/06 02:17:00;;;;;;;;;;;;;;;;;;4150347;28;20062;-66
2023/12/06 02:19:02;;;;;;;;;;;;;;;;;;4150212;28;20293;-66
2023/12/06 02:21:03;;;;;;;;;;;;;;;;;;4149742;28;19968;-66
2023/12/06 02:23:05;;;;;;;;;;;;;;;;;;4150101;28;19921;-66
2023/12/06 02:25:06;;;;;;;;;;;;;;;;;;4164854;28;19921;-66
2023/12/06 02:27:08;;;;;;;;;;;;;;;;;;4149454;28;19921;-66
2023/12/06 02:29:09;;;;;;;;;;;;;;;;;;4149945;28;19929;-66
2023/12/06 02:31:11;;;;;;;;;;;;;;;;;;4149598;28;20404;-65
2023/12/06 02:33:12;;;;;;;;;;;;;;;;;;4149647;28;19925;-66
2023/12/06 02:35:15;;;;;;;;;;;;;;;;;;4149656;28;19972;-66
2023/12/06 02:37:16;;;;;;;;;;;;;;;;;;4149744;28;20271;-66
2023/12/06 02:39:18;;;;;;;;;;;;;;;;;;4149775;28;20020;-66
2023/12/06 02:41:19;;;;;;;;;;;;;;;;;;4149773;28;19975;-66
2023/12/06 02:43:21;;;;;;;;;;;;;;;;;;4149450;28;19991;-66
2023/12/06 02:45:22;;;;;;;;;;;;;;;;;;4149043;28;19932;-66
2023/12/06 02:47:24;;;;;;;;;;;;;;;;;;4148889;28;19922;-67
2023/12/06 02:49:26;;;;;;;;;;;;;;;;;;4132014;28;19930;-66
2023/12/06 02:51:27;;;;;;;;;;;;;;;;;;4149574;28;19928;-66
2023/12/06 02:53:29;;;;;;;;;;;;;;;;;;4154054;28;19921;-66
2023/12/06 02:55:30;;;;;;;;;;;;;;;;;;4165619;28;19921;-66
2023/12/06 02:57:32;;;;;;;;;;;;;;;;;;4160239;28;19929;-66
2023/12/06 02:59:33;;;;;;;;;;;;;;;;;;4149294;28;19925;-66
2023/12/06 03:01:35;;;;;;;;;;;;;;;;;;4149199;28;20324;-66
2023/12/06 03:03:36;;;;;;;;;;;;;;;;;;4148912;28;19948;-67
2023/12/06 03:05:38;;;;;;;;;;;;;;;;;;4149034;28;20370;-66
2023/12/06 03:07:39;;;;;;;;;;;;;;;;;;4149376;28;20186;-66
2023/12/06 03:09:41;;;;;;;;;;;;;;;;;;4163628;28;20019;-66
2023/12/06 03:11:42;;;;;;;;;;;;;;;;;;4165352;28;20282;-66
2023/12/06 03:13:44;;;;;;;;;;;;;;;;;;4148261;28;19956;-66
2023/12/06 03:15:45;;;;;;;;;;;;;;;;;;4165263;28;19943;-66
2023/12/06 03:17:47;;;;;;;;;;;;;;;;;;4165434;28;19921;-66
2023/12/06 03:19:48;;;;;;;;;;;;;;;;;;4165104;28;19921;-66
2023/12/06 03:21:50;;;;;;;;;;;;;;;;;;4165244;28;19921;-66
2023/12/06 03:23:52;;;;;;;;;;;;;;;;;;4165185;28;20036;-67
2023/12/06 03:25:53;;;;;;;;;;;;;;;;;;4148691;28;19936;-66
2023/12/06 03:27:55;;;;;;;;;;;;;;;;;;4149156;28;19926;-66
2023/12/06 03:29:56;;;;;;;;;;;;;;;;;;4148916;28;19947;-66
2023/12/06 03:31:58;;;;;;;;;;;;;;;;;;4149007;28;19971;-67
2023/12/06 03:33:59;;;;;;;;;;;;;;;;;;4148748;28;19979;-67
2023/12/06 03:36:01;;;;;;;;;;;;;;;;;;4148561;28;20296;-67
2023/12/06 03:38:03;;;;;;;;;;;;;;;;;;4148706;28;20323;-66
2023/12/06 03:40:05;;;;;;;;;;;;;;;;;;4148519;28;19925;-67
2023/12/06 03:42:06;;;;;;;;;;;;;;;;;;4148845;28;20024;-67
2023/12/06 03:44:08;;;;;;;;;;;;;;;;;;4148398;28;20400;-66
2023/12/06 03:46:09;;;;;;;;;;;;;;;;;;4149043;28;20321;-66
2023/12/06 03:48:11;;;;;;;;;;;;;;;;;;4157217;28;19983;-66
2023/12/06 03:50:13;;;;;;;;;;;;;;;;;;4153839;28;20480;-66
2023/12/06 03:52:14;;;;;;;;;;;;;;;;;;4147412;28;20254;-66
2023/12/06 03:54:16;;;;;;;;;;;;;;;;;;4150004;28;19921;-67
2023/12/06 03:56:17;;;;;;;;;;;;;;;;;;4130889;28;19928;-67
2023/12/06 03:58:19;;;;;;;;;;;;;;;;;;4151593;28;19933;-66
2023/12/06 04:00:20;;;;;;;;;;;;;;;;;;4164440;28;19927;-67
2023/12/06 04:02:22;;;;;;;;;;;;;;;;;;4165100;28;19927;-67
2023/12/06 04:04:24;;;;;;;;;;;;;;;;;;4164515;28;19929;-67
2023/12/06 04:06:26;;;;;;;;;;;;;;;;;;4164918;28;19921;-66
2023/12/06 04:08:27;;;;;;;;;;;;;;;;;;4164351;28;19921;-66
2023/12/06 04:10:29;;;;;;;;;;;;;;;;;;4164617;28;19928;-66
2023/12/06 04:12:30;;;;;;;;;;;;;;;;;;4164816;28;19972;-66
2023/12/06 04:14:32;;;;;;;;;;;;;;;;;;4164644;28;20371;-66
2023/12/06 04:16:33;;;;;;;;;;;;;;;;;;4164599;28;19991;-67
2023/12/06 04:18:35;;;;;;;;;;;;;;;;;;4164535;28;20296;-67
2023/12/06 04:20:36;;;;;;;;;;;;;;;;;;4160223;28;19968;-67
2023/12/06 04:22:38;;;;;;;;;;;;;;;;;;4148515;28;19928;-67
2023/12/06 04:24:39;;;;;;;;;;;;;;;;;;4147343;28;19985;-67
2023/12/06 04:26:41;;;;;;;;;;;;;;;;;;4148465;28;19921;-66
2023/12/06 04:28:45;;;;;;;;;;;;;;;;;;4130866;28;19956;-66
2023/12/06 04:30:46;;;;;;;;;;;;;;;;;;4148227;28;19922;-66
2023/12/06 04:32:48;;;;;;;;;;;;;;;;;;4148444;28;20433;-66
2023/12/06 04:34:49;;;;;;;;;;;;;;;;;;4148216;28;19922;-66
2023/12/06 04:36:51;;;;;;;;;;;;;;;;;;4148562;28;19972;-66
2023/12/06 04:38:53;;;;;;;;;;;;;;;;;;4161312;28;20264;-67
2023/12/06 04:40:55;;;;;;;;;;;;;;;;;;4146861;28;19933;-67
2023/12/06 04:42:56;;;;;;;;;;;;;;;;;;4147069;28;20374;-67
2023/12/06 04:44:58;;;;;;;;;;;;;;;;;;4147904;28;19925;-67
2023/12/06 04:46:59;;;;;;;;;;;;;;;;;;4147762;28;20373;-66
2023/12/06 04:49:00;;;;;;;;;;;;;;;;;;4148148;28;19937;-67
2023/12/06 04:51:02;;;;;;;;;;;;;;;;;;4130195;28;20365;-66
2023/12/06 04:53:04;;;;;;;;;;;;;;;;;;4148972;28;19926;-67
2023/12/06 04:55:06;;;;;;;;;;;;;;;;;;4164277;28;19920;-67
2023/12/06 04:57:08;;;;;;;;;;;;;;;;;;4164471;28;19921;-67
2023/12/06 04:59:09;;;;;;;;;;;;;;;;;;4164340;28;20409;-66
2023/12/06 05:01:11;;;;;;;;;;;;;;;;;;4163700;28;19928;-67
2023/12/06 05:03:13;;;;;;;;;;;;;;;;;;4164134;28;19986;-66
2023/12/06 05:05:15;;;;;;;;;;;;;;;;;;4164352;28;19963;-67
2023/12/06 05:07:17;;;;;;;;;;;;;;;;;;4164345;28;19927;-66
2023/12/06 05:09:18;;;;;;;;;;;;;;;;;;4164695;28;19935;-67
2023/12/06 05:11:20;;;;;;;;;;;;;;;;;;4167130;28;19924;-66
2023/12/06 05:13:21;;;;;;;;;;;;;;;;;;4167531;28;19967;-66
2023/12/06 05:15:23;;;;;;;;;;;;;;;;;;4167495;28;19921;-67
2023/12/06 05:17:24;;;;;;;;;;;;;;;;;;4152647;28;19921;-67
2023/12/06 05:19:26;;;;;;;;;;;;;;;;;;4153099;28;19932;-66
2023/12/06 05:21:27;;;;;;;;;;;;;;;;;;4148269;28;19932;-66
2023/12/06 05:23:29;;;;;;;;;;;;;;;;;;4134464;28;19925;-67
2023/12/06 05:25:32;;;;;;;;;;;;;;;;;;4145544;28;20019;-66
2023/12/06 05:27:34;;;;;;;;;;;;;;;;;;4150913;28;19967;-66
2023/12/06 05:29:35;;;;;;;;;;;;;;;;;;4150562;28;19921;-66
2023/12/06 05:31:37;;;;;;;;;;;;;;;;;;4156496;28;19921;-66
2023/12/06 05:33:39;;;;;;;;;;;;;;;;;;4167192;28;19928;-67
2023/12/06 05:35:40;;;;;;;;;;;;;;;;;;4160156;28;20366;-67
2023/12/06 05:37:42;;;;;;;;;;;;;;;;;;4150534;28;19921;-67
2023/12/06 05:39:43;;;;;;;;;;;;;;;;;;4150567;28;20327;-66
2023/12/06 05:41:45;;;;;;;;;;;;;;;;;;4150595;28;19947;-66
2023/12/06 05:43:46;;;;;;;;;;;;;;;;;;4150325;28;20361;-67
2023/12/06 05:45:48;;;;;;;;;;;;;;;;;;4150376;28;19945;-67
2023/12/06 05:47:50;;;;;;;;;;;;;;;;;;4150321;28;19925;-67
2023/12/06 05:49:51;;;;;;;;;;;;;;;;;;4150230;28;20019;-67
2023/12/06 05:51:53;;;;;;;;;;;;;;;;;;4150293;28;19979;-67
2023/12/06 05:53:54;;;;;;;;;;;;;;;;;;4150465;28;19925;-67
2023/12/06 05:55:56;;;;;;;;;;;;;;;;;;4150190;28;19921;-64
2023/12/06 05:57:58;;;;;;;;;;;;;;;;;;4150184;28;20337;-64
2023/12/06 05:59:59;;;;;;;;;;;;;;;;;;4152367;28;20382;-64
2023/12/06 06:02:02;;;;;;;;;;;;;;;;;;4132187;28;19972;-64
2023/12/06 06:04:04;;;;;;;;;;;;;;;;;;4149808;28;19961;-64
2023/12/06 06:06:06;;;;;;;;;;;;;;;;;;4150092;28;20452;-64
2023/12/06 06:08:07;;;;;;;;;;;;;;;;;;4151757;28;19956;-65
2023/12/06 06:10:09;;;;;;;;;;;;;;;;;;4166186;28;19921;-65
2023/12/06 06:12:11;;;;;;;;;;;;;;;;;;4155014;28;19925;-64
2023/12/06 06:14:12;;;;;;;;;;;;;;;;;;4135496;28;19932;-64
2023/12/06 06:16:14;;;;;;;;;;;;;;;;;;4149860;28;19937;-64
2023/12/06 06:18:15;;;;;;;;;;;;;;;;;;4149668;28;20108;-64
2023/12/06 06:20:17;;;;;;;;;;;;;;;;;;4148330;28;19925;-65
2023/12/06 06:22:19;;;;;;;;;;;;;;;;;;4133484;28;19937;-61
2023/12/06 06:24:20;;;;;;;;;;;;;;;;;;4134478;28;20363;-63
2023/12/06 06:26:22;;;;;;;;;;;;;;;;;;4152949;28;19967;-62
2023/12/06 06:28:23;;;;;;;;;;;;;;;;;;4149481;28;20328;-62
2023/12/06 06:30:25;;;;;;;;;;;;;;;;;;4149389;28;19933;-63
2023/12/06 06:32:26;;;;;;;;;;;;;;;;;;4149205;28;19995;-62
2023/12/06 06:34:28;;;;;;;;;;;;;;;;;;4149645;28;19980;-62
2023/12/06 06:36:30;;;;;;;;;;;;;;;;;;4149413;28;19953;-61
2023/12/06 06:38:31;;;;;;;;;;;;;;;;;;4148663;28;19922;-62
2023/12/06 06:40:33;;;;;;;;;;;;;;;;;;4130966;28;19922;-62
2023/12/06 06:42:35;;;;;;;;;;;;;;;;;;4148529;28;20385;-63
2023/12/06 06:44:37;;;;;;;;;;;;;;;;;;4149561;28;19952;-62
2023/12/06 06:46:54;;;;;;;;;;;;;;;;;;4149505;28;19965;-62
2023/12/06 06:48:56;;;;;;;;;;;;;;;;;;4132064;28;19925;-61
2023/12/06 06:50:58;;;;;;;;;;;;;;;;;;4149466;28;19925;-62
2023/12/06 06:53:01;;;;;;;;;;;;;;;;;;4149758;28;20373;-62
2023/12/06 06:55:02;;;;;;;;;;;;;;;;;;4165756;28;19967;-62
2023/12/06 06:57:04;;;;;;;;;;;;;;;;;;4165764;28;19959;-62
2023/12/06 06:59:05;;;;;;;;;;;;;;;;;;4165508;28;19925;-62
2023/12/06 07:01:08;;;;;;;;;;;;;;;;;;4165342;28;19925;-62
2023/12/06 07:03:11;;;;;;;;;;;;;;;;;;4147804;28;19956;-61
2023/12/06 07:05:12;;;;;;;;;;;;;;;;;;4165316;28;19959;-64
2023/12/06 07:07:14;;;;;;;;;;;;;;;;;;4165408;28;20004;-65
2023/12/06 07:09:16;;;;;;;;;;;;;;;;;;4161795;28;19921;-65
2023/12/06 07:11:17;;;;;;;;;;;;;;;;;;4152994;28;19921;-65
2023/12/06 07:13:19;;;;;;;;;;;;;;;;;;4165477;28;19929;-65
2023/12/06 07:15:20;;;;;;;;;;;;;;;;;;4165525;28;19925;-65
2023/12/06 07:17:22;;;;;;;;;;;;;;;;;;4164524;28;19921;-65
2023/12/06 07:19:24;;;;;;;;;;;;;;;;;;4147968;28;19929;-65
2023/12/06 07:21:28;;;;;;;;;;;;;;;;;;4154300;28;20012;-66
2023/12/06 07:23:30;;;;;;;;;;;;;;;;;;4147840;28;19921;-66
2023/12/06 07:25:32;;;;;;;;;;;;;;;;;;4148581;28;19925;-65
2023/12/06 07:27:33;;;;;;;;;;;;;;;;;;4148867;28;19963;-65
2023/12/06 07:29:35;;;;;;;;;;;;;;;;;;4148259;28;19925;-66
2023/12/06 07:31:37;;;;;;;;;;;;;;;;;;4148810;28;20324;-65
2023/12/06 07:33:39;;;;;;;;;;;;;;;;;;4146891;28;19964;-65
2023/12/06 07:35:40;;;;;;;;;;;;;;;;;;4148798;28;20017;-65
2023/12/06 07:37:42;;;;;;;;;;;;;;;;;;4148618;28;19925;-65
2023/12/06 07:39:44;;;;;;;;;;;;;;;;;;4148049;28;19925;-65
2023/12/06 07:41:45;;;;;;;;;;;;;;;;;;4148015;28;19932;-65
2023/12/06 07:43:47;;;;;;;;;;;;;;;;;;4148660;28;19928;-65
2023/12/06 07:45:48;;;;;;;;;;;;;;;;;;4147489;28;20266;-65
2023/12/06 07:47:50;;;;;;;;;;;;;;;;;;4148115;28;20297;-65
2023/12/06 07:49:51;;;;;;;;;;;;;;;;;;4148647;28;19928;-65
2023/12/06 07:51:55;;;;;;;;;;;;;;;;;;4148741;28;19922;-65
2023/12/06 07:53:56;;;;;;;;;;;;;;;;;;4155788;28;19952;-65
2023/12/06 07:55:58;;;;;;;;;;;;;;;;;;4149118;28;19975;-66
2023/12/06 07:57:59;;;;;;;;;;;;;;;;;;4148788;28;19975;-65
2023/12/06 08:00:02;;;;;;;;;;;;;;;;;;4146686;28;19921;-65
2023/12/06 08:02:04;;;;;;;;;;;;;;;;;;4145929;28;20286;-66
2023/12/06 08:04:05;;;;;;;;;;;;;;;;;;4146976;28;20782;-65
2023/12/06 08:06:07;;;;;;;;;;;;;;;;;;4146896;28;19963;-66
2023/12/06 08:08:08;;;;;;;;;;;;;;;;;;4150270;28;19936;-66
2023/12/06 08:10:12;;;;;;;;;;;;;;;;;;4146410;28;20332;-65
2023/12/06 08:12:14;;;;;;;;;;;;;;;;;;4154233;28;19968;-66
2023/12/06 08:14:15;;;;;;;;;;;;;;;;;;4147427;28;19925;-66
2023/12/06 08:16:17;;;;;;;;;;;;;;;;;;4148293;28;19921;-66
2023/12/06 08:18:18;;;;;;;;;;;;;;;;;;4145881;28;19929;-66
2023/12/06 08:20:20;;;;;;;;;;;;;;;;;;4147961;28;19925;-66
2023/12/06 08:22:21;;;;;;;;;;;;;;;;;;4147703;28;20413;-66
2023/12/06 08:24:23;;;;;;;;;;;;;;;;;;4147356;28;19921;-65
2023/12/06 08:26:24;;;;;;;;;;;;;;;;;;4148106;28;19929;-65
2023/12/06 08:28:26;;;;;;;;;;;;;;;;;;4147615;28;19926;-65
2023/12/06 08:30:28;;;;;;;;;;;;;;;;;;4147440;28;19996;-65
2023/12/06 08:32:30;;;;;;;;;;;;;;;;;;4147011;28;19927;-66
2023/12/06 08:34:32;;;;;;;;;;;;;;;;;;4148240;28;19971;-66
2023/12/06 08:36:33;;;;;;;;;;;;;;;;;;4147258;28;20285;-66
2023/12/06 08:38:35;;;;;;;;;;;;;;;;;;4147455;28;20396;-65
2023/12/06 08:40:36;;;;;;;;;;;;;;;;;;4147042;28;20314;-65
2023/12/06 08:42:38;;;;;;;;;;;;;;;;;;4148212;28;19944;-65
2023/12/06 08:44:39;;;;;;;;;;;;;;;;;;4135185;28;19921;-65
2023/12/06 08:46:42;;;;;;;;;;;;;;;;;;4151330;28;19921;-66
2023/12/06 08:48:43;;;;;;;;;;;;;;;;;;4151297;28;20365;-66
2023/12/06 08:50:47;;;;;;;;;;;;;;;;;;4149865;28;19921;-66
2023/12/06 08:52:48;;;;;;;;;;;;;;;;;;4151534;28;19921;-66
2023/12/06 08:54:50;;;;;;;;;;;;;;;;;;4158748;28;19960;-66
2023/12/06 08:56:51;;;;;;;;;;;;;;;;;;4149449;28;20016;-66
2023/12/06 08:58:53;;;;;;;;;;;;;;;;;;4149530;28;19975;-65
2023/12/06 09:00:54;;;;;;;;;;;;;;;;;;4150152;28;19929;-65
2023/12/06 09:02:56;;;;;;;;;;;;;;;;;;4151026;28;19931;-65
2023/12/06 09:04:57;;;;;;;;;;;;;;;;;;4148728;28;19968;-65
2023/12/06 09:06:59;;;;;;;;;;;;;;;;;;4150307;28;19921;-66
2023/12/06 09:09:02;;;;;;;;;;;;;;;;;;4153825;28;19929;-65
2023/12/06 09:11:04;;;;;;;;;;;;;;;;;;4153097;28;19928;-65
2023/12/06 09:13:06;;;;;;;;;;;;;;;;;;4151573;28;19930;-65
2023/12/06 09:15:07;;;;;;;;;;;;;;;;;;4148992;28;19921;-65
2023/12/06 09:17:09;;;;;;;;;;;;;;;;;;4148236;28;19925;-66
2023/12/06 09:19:13;;;;;;;;;;;;;;;;;;4134942;28;19968;-66
2023/12/06 09:21:17;;;;;;;;;;;;;;;;;;4144153;28;19948;-66
2023/12/06 09:23:19;;;;;;;;;;;;;;;;;;4150119;28;19929;-66
2023/12/06 09:25:20;;;;;;;;;;;;;;;;;;4149660;28;19921;-63
2023/12/06 09:27:22;;;;;;;;;;;;;;;;;;4145448;28;19926;-62
2023/12/06 09:29:24;;;;;;;;;;;;;;;;;;4132904;28;19995;-62
2023/12/06 09:31:25;;;;;;;;;;;;;;;;;;4148360;28;19925;-61
2023/12/06 09:33:27;;;;;;;;;;;;;;;;;;4149544;28;19926;-63
2023/12/06 09:35:29;;;;;;;;;;;;;;;;;;4149212;28;20010;-63
2023/12/06 09:37:31;;;;;;;;;;;;;;;;;;4143304;28;20297;-62
2023/12/06 09:39:33;;;;;;;;;;;;;;;;;;4149741;28;19921;-62
2023/12/06 09:41:34;;;;;;;;;;;;;;;;;;4150747;28;20381;-62
2023/12/06 09:43:36;;;;;;;;;;;;;;;;;;4149664;28;19969;-62
2023/12/06 09:45:38;;;;;;;;;;;;;;;;;;4149562;28;19925;-62
2023/12/06 09:47:39;;;;;;;;;;;;;;;;;;4148986;28;20389;-62
2023/12/06 09:49:41;;;;;;;;;;;;;;;;;;4148488;28;19921;-61
2023/12/06 09:51:42;;;;;;;;;;;;;;;;;;4135360;28;20650;-62
2023/12/06 09:53:44;;;;;;;;;;;;;;;;;;4154543;28;20316;-61
2023/12/06 09:55:45;;;;;;;;;;;;;;;;;;4135193;28;19922;-61
2023/12/06 09:57:48;;;;;;;;;;;;;;;;;;4143960;28;19921;-62
2023/12/06 09:59:50;;;;;;;;;;;;;;;;;;4148886;28;19921;-61
2023/12/06 10:01:51;;;;;;;;;;;;;;;;;;4148545;28;19925;-62
2023/12/06 10:03:55;;;;;;;;;;;;;;;;;;4149988;28;19925;-61
2023/12/06 10:05:56;;;;;;;;;;;;;;;;;;4150145;28;19926;-62
2023/12/06 10:07:58;;;;;;;;;;;;;;;;;;4150620;28;19925;-62
2023/12/06 10:10:00;;;;;;;;;;;;;;;;;;4166505;28;19925;-62
2023/12/06 10:12:02;;;;;;;;;;;;;;;;;;4166312;28;19921;-62
2023/12/06 10:14:03;;;;;;;;;;;;;;;;;;4164950;28;19920;-61
2023/12/06 10:16:05;;;;;;;;;;;;;;;;;;4116308;28;19945;-62
2023/12/06 10:18:06;;;;;;;;;;;;;;;;;;4146852;28;19968;-62
2023/12/06 10:20:08;;;;;;;;;;;;;;;;;;4147481;28;19929;-62
2023/12/06 10:22:10;;;;;;;;;;;;;;;;;;4147698;28;20408;-62
2023/12/06 10:24:11;;;;;;;;;;;;;;;;;;4148131;28;19947;-62
2023/12/06 10:26:15;;;;;;;;;;;;;;;;;;4149489;28;20428;-61
2023/12/06 10:28:17;;;;;;;;;;;;;;;;;;4149791;28;19925;-62
2023/12/06 10:30:20;;;;;;;;;;;;;;;;;;4149803;28;19940;-61
2023/12/06 10:32:22;;;;;;;;;;;;;;;;;;4149000;28;19925;-61
2023/12/06 10:34:24;;;;;;;;;;;;;;;;;;4145831;28;19925;-62
2023/12/06 10:36:25;;;;;;;;;;;;;;;;;;4148058;28;19925;-62
2023/12/06 10:38:27;;;;;;;;;;;;;;;;;;4147823;28;19983;-62
2023/12/06 10:40:29;;;;;;;;;;;;;;;;;;4148279;28;19930;-62
2023/12/06 10:42:30;;;;;;;;;;;;;;;;;;4148761;28;19928;-62
2023/12/06 10:44:32;;;;;;;;;;;;;;;;;;4148441;28;19921;-61
2023/12/06 10:46:33;;;;;;;;;;;;;;;;;;4146916;28;19975;-62
2023/12/06 10:48:35;;;;;;;;;;;;;;;;;;4148864;28;19945;-62
2023/12/06 10:50:38;;;;;;;;;;;;;;;;;;4147846;28;19948;-62
2023/12/06 10:52:39;;;;;;;;;;;;;;;;;;4148950;28;19929;-61
2023/12/06 10:54:41;;;;;;;;;;;;;;;;;;4146824;28;20358;-62
2023/12/06 10:56:43;;;;;;;;;;;;;;;;;;4145379;28;20016;-62
2023/12/06 10:58:44;;;;;;;;;;;;;;;;;;4148804;28;19988;-63
2023/12/06 11:00:46;;;;;;;;;;;;;;;;;;4145603;28;19929;-61
2023/12/06 11:02:48;;;;;;;;;;;;;;;;;;4149225;28;19925;-62
2023/12/06 11:04:50;;;;;;;;;;;;;;;;;;4142557;28;19922;-62
2023/12/06 11:06:51;;;;;;;;;;;;;;;;;;4141920;28;19921;-62
2023/12/06 11:08:53;;;;;;;;;;;;;;;;;;4147476;28;20281;-61
2023/12/06 11:10:54;;;;;;;;;;;;;;;;;;4149900;28;19926;-62
2023/12/06 11:12:57;;;;;;;;;;;;;;;;;;4150300;28;19940;-62
2023/12/06 11:14:59;;;;;;;;;;;;;;;;;;4146946;28;19928;-62
2023/12/06 11:17:04;;;;;;;;;;;;;;;;;;4148219;28;19971;-62
2023/12/06 11:19:05;;;;;;;;;;;;;;;;;;4146849;28;19928;-62
2023/12/06 11:21:07;;;;;;;;;;;;;;;;;;4149046;28;20392;-61
2023/12/06 11:23:08;;;;;;;;;;;;;;;;;;4147479;28;20340;-62
2023/12/06 11:25:10;;;;;;;;;;;;;;;;;;4148254;28;20439;-62
2023/12/06 11:27:12;;;;;;;;;;;;;;;;;;4146194;28;19926;-61
2023/12/06 11:29:13;;;;;;;;;;;;;;;;;;4145884;28;19925;-63
2023/12/06 11:31:15;;;;;;;;;;;;;;;;;;4147754;28;19925;-61
2023/12/06 11:33:16;;;;;;;;;;;;;;;;;;4148834;28;20413;-61
2023/12/06 11:35:18;;;;;;;;;;;;;;;;;;4147452;28;20031;-61
2023/12/06 11:37:19;;;;;;;;;;;;;;;;;;4147728;28;20362;-61
2023/12/06 11:39:21;;;;;;;;;;;;;;;;;;4144387;28;19921;-61
2023/12/06 11:41:23;;;;;;;;;;;;;;;;;;4146691;28;19987;-62
2023/12/06 11:43:24;;;;;;;;;;;;;;;;;;4145802;28;19948;-62
2023/12/06 11:45:26;;;;;;;;;;;;;;;;;;4145569;28;19976;-61
2023/12/06 11:47:28;;;;;;;;;;;;;;;;;;4136402;28;19932;-65
2023/12/06 11:49:29;;;;;;;;;;;;;;;;;;4140843;28;19921;-65
2023/12/06 11:51:31;;;;;;;;;;;;;;;;;;4146670;28;19921;-65
2023/12/06 11:53:32;;;;;;;;;;;;;;;;;;4145005;28;19922;-64
2023/12/06 11:55:34;;;;;;;;;;;;;;;;;;4125544;28;20492;-64
2023/12/06 11:57:36;;;;;;;;;;;;;;;;;;4130649;28;19941;-65
2023/12/06 11:59:39;;;;;;;;;;;;;;;;;;4143569;28;20003;-65
2023/12/06 12:01:40;;;;;;;;;;;;;;;;;;4130444;28;19945;-65
2023/12/06 12:03:42;;;;;;;;;;;;;;;;;;4147774;28;19928;-65
2023/12/06 12:05:43;;;;;;;;;;;;;;;;;;4148276;28;19957;-65
2023/12/06 12:07:45;;;;;;;;;;;;;;;;;;4150279;28;19921;-64
2023/12/06 12:09:46;;;;;;;;;;;;;;;;;;4153809;28;20371;-65
2023/12/06 12:11:48;;;;;;;;;;;;;;;;;;4151961;28;20021;-64
2023/12/06 12:13:50;;;;;;;;;;;;;;;;;;4153624;28;19967;-64
2023/12/06 12:15:52;;;;;;;;;;;;;;;;;;4147317;28;19971;-64
2023/12/06 12:17:53;;;;;;;;;;;;;;;;;;4144745;28;19925;-65
2023/12/06 12:19:55;;;;;;;;;;;;;;;;;;4148469;28;19925;-64
2023/12/06 12:21:56;;;;;;;;;;;;;;;;;;4148494;28;20016;-65
2023/12/06 12:24:02;;;;;;;;;;;;;;;;;;4149403;28;19928;-64
2023/12/06 12:26:03;;;;;;;;;;;;;;;;;;4154405;28;19921;-65
2023/12/06 12:28:05;;;;;;;;;;;;;;;;;;4153781;28;19921;-64
2023/12/06 12:30:10;;;;;;;;;;;;;;;;;;4157099;28;19972;-65
2023/12/06 12:32:11;;;;;;;;;;;;;;;;;;4148471;28;19921;-64
2023/12/06 12:34:13;;;;;;;;;;;;;;;;;;4147923;28;19921;-64
2023/12/06 12:36:16;;;;;;;;;;;;;;;;;;4141877;28;19975;-65
2023/12/06 12:38:18;;;;;;;;;;;;;;;;;;4141268;28;19933;-64
2023/12/06 12:40:19;;;;;;;;;;;;;;;;;;4146910;28;19984;-68
2023/12/06 12:42:21;;;;;;;;;;;;;;;;;;4147644;28;19925;-68
2023/12/06 12:44:22;;;;;;;;;;;;;;;;;;4141451;28;20291;-68
2023/12/06 12:46:24;;;;;;;;;;;;;;;;;;4148200;28;19921;-69
2023/12/06 12:48:26;;;;;;;;;;;;;;;;;;4148161;28;20452;-68
2023/12/06 12:50:27;;;;;;;;;;;;;;;;;;4148031;28;19929;-68
2023/12/06 12:52:29;;;;;;;;;;;;;;;;;;4148140;28;19956;-68
2023/12/06 12:54:30;;;;;;;;;;;;;;;;;;4161141;28;19928;-68
2023/12/06 12:56:32;;;;;;;;;;;;;;;;;;4148902;28;19972;-65
2023/12/06 12:58:35;;;;;;;;;;;;;;;;;;4148087;28;19925;-65
2023/12/06 13:00:37;;;;;;;;;;;;;;;;;;4147663;28;19927;-65
2023/12/06 13:02:39;;;;;;;;;;;;;;;;;;4148096;28;20020;-65
2023/12/06 13:04:40;;;;;;;;;;;;;;;;;;4147777;28;19987;-64
2023/12/06 13:06:42;;;;;;;;;;;;;;;;;;4147086;28;20273;-64
2023/12/06 13:08:47;;;;;;;;;;;;;;;;;;4154577;28;20339;-65
2023/12/06 13:10:51;;;;;;;;;;;;;;;;;;4163482;28;19929;-65
2023/12/06 13:12:53;;;;;;;;;;;;;;;;;;4147782;28;19996;-64
2023/12/06 13:14:54;;;;;;;;;;;;;;;;;;4146298;28;19946;-64
2023/12/06 13:16:56;;;;;;;;;;;;;;;;;;4143772;28;20378;-65
2023/12/06 13:18:57;;;;;;;;;;;;;;;;;;4145895;28;19922;-65
2023/12/06 13:20:59;;;;;;;;;;;;;;;;;;4143194;28;20023;-65
2023/12/06 13:23:01;;;;;;;;;;;;;;;;;;4145683;28;19929;-65
2023/12/06 13:25:05;;;;;;;;;;;;;;;;;;4152345;28;19926;-65
2023/12/06 13:27:07;;;;;;;;;;;;;;;;;;4144663;28;19921;-64
2023/12/06 13:29:09;;;;;;;;;;;;;;;;;;4141891;28;20016;-66
2023/12/06 13:31:10;;;;;;;;;;;;;;;;;;4146161;28;19930;-65
2023/12/06 13:33:12;;;;;;;;;;;;;;;;;;4147714;28;19932;-64
2023/12/06 13:35:13;;;;;;;;;;;;;;;;;;4151001;28;19929;-64
2023/12/06 13:37:20;;;;;;;;;;;;;;;;;;4151248;28;19996;-72
2023/12/06 13:39:26;;;;;;;;;;;;;;;;;;4150467;28;19972;-72
2023/12/06 13:41:28;;;;;;;;;;;;;;;;;;4150259;28;19921;-72
2023/12/06 13:43:29;;;;;;;;;;;;;;;;;;4147869;28;20378;-72
2023/12/06 13:45:31;;;;;;;;;;;;;;;;;;4149848;28;19932;-72
2023/12/06 13:47:33;;;;;;;;;;;;;;;;;;4149468;28;20466;-72
2023/12/06 13:49:35;;;;;;;;;;;;;;;;;;4153397;28;20012;-72
2023/12/06 13:51:37;;;;;;;;;;;;;;;;;;4154110;28;19922;-72